Aviation Digital Data Service (ADDS)

Output produced by METARs form (0954 UTC 19 November 2018)
found at http://www.aviationweather.gov/metar/data/
 
LETO 190900Z 02007KT 9999 SCT040 BKN050 10/08 Q1003 NOSIG
TAF LETO 190500Z 1906/2006 01009KT 9999 FEW020 SCT040 TX14/1915Z TN09/2006Z 
     BECMG 1912/1915 23007KT
       
LEZG 190930Z 28008KT 9999 SCT055 BKN070 12/09 Q1004
TAF LEZG 190500Z 1906/2006 VRB04KT 9999 SCT020 TX15/1913Z TN06/2006Z 
     PROB40 
     TEMPO 1906/1910 3000 RA OVC012 
     BECMG 1916/1918 30007KT 
     PROB40 
     TEMPO 1920/1924 3000 RA OVC012
       
LERT 190933Z 30005KT 260V330 9000 FEW015 SCT025 BKN050 15/13 Q1004 RERA TEMPO 4000 SHRA SCT020TCU
TAF LERT 190800Z 1909/1918 28010KT 9999 SCT025 
     PROB30 
     TEMPO 1909/1910 4000 SHRA SCT020TCU
       
LELC 190930Z 28006KT 250V320 9000 RA SCT040 14/13 Q1000 NOSIG
TAF AMD LELC 190637Z 1906/2006 30009KT 9999 SCT025 SCT050 TX18/1914Z TN12/2006Z 
     PROB40 
     TEMPO 1906/1921 4000 SHRA SCT020TCU BKN040 
     PROB30 
     TEMPO 1906/1912 TSRA SCT020CB
       
LEAB 190900Z 33006KT 9999 FEW016 BKN020 09/08 Q1002 NOSIG
TAF LEAB 190800Z 1909/1918 29008KT 9999 SCT020 BKN040 
     TEMPO 1909/1918 4000 RA BKN014
       
LEBZ 190943Z VRB02KT 0900 R31/1000N FG VV002 11/11 Q1004
TAF AMD LEBZ 190602Z 1906/2006 24005KT 2000 BR BKN008 TX16/1915Z TN08/1906Z 
     PROB40 
     TEMPO 1906/1909 0200 FG VV001 
     BECMG 1910/1912 9999 NSW SCT030 
     PROB30 
     TEMPO 1912/1918 4000 SHRA SCT020TCU 
     PROB40 
     TEMPO 2003/2006 0500 FG
       
LEMO 190900Z 23010KT 9999 FEW005 BKN006 BKN009 13/11 Q1003 NOSIG
TAF AMD LEMO 190837Z 1909/1918 24009KT 9999 SCT025 
     PROB30 
     TEMPO 1909/1910 BKN008 
     PROB30 
     TEMPO 1910/1916 4000 SHRA SCT025TCU
       
LESA 190930Z VRB01KT 9999 FEW016 SCT022 07/06 Q1004
TAF LESA 190500Z 1906/2006 VRB04KT 9999 FEW030 TX13/1914Z TN05/1906Z 
     BECMG 1910/1913 27009KT
       
GCLP 190930Z 33010KT 300V360 9999 FEW020 SCT060 20/12 Q1014 NOSIG
TAF GCLP 190800Z 1909/2009 30005KT 9999 FEW020 TX24/1913Z TN17/2006Z 
     PROB40 
     TEMPO 1912/1915 33015KT 
     BECMG 1915/1917 30015KT 
     BECMG 2004/2006 24005KT
       
LIED 190855Z 01004KT 5000 -RA FEW020TCU BKN050 10/08 Q1003 RMK OVC VIS MIN 5000 WIND THR35 /////KT WIND THR17 /////KT WHT
TAF LIED 190800Z 1909/1918 VRB05KT 8000 RA SCT020 BKN060 
     TEMPO 1909/1915 5000 TSRA FEW015CB BKN020 
     BECMG 1911/1913 15007KT
       
LIPR 190920Z 27007KT 9999 FEW025 BKN040 07/03 Q1010
TAF LIPR 190800Z 1909/1918 26010KT 9999 SCT030 BKN050 
     TEMPO 1912/1918 SHRA